sensor_id;sensor_type;location;lat;lon;timestamp;P1;durP1;ratioP1;P2;durP2;ratioP2
25249;SDS011;13201;51.148;13.738;2023-06-14T00:00:18;2.40;;;2.08;;
25249;SDS011;13201;51.148;13.738;2023-06-14T00:02:45;2.80;;;1.77;;
25249;SDS011;13201;51.148;13.738;2023-06-14T00:05:10;3.17;;;1.95;;
25249;SDS011;13201;51.148;13.738;2023-06-14T00:07:41;5.38;;;1.67;;
25249;SDS011;13201;51.148;13.738;2023-06-14T00:10:13;3.08;;;1.70;;
25249;SDS011;13201;51.148;13.738;2023-06-14T00:12:40;4.50;;;2.38;;
25249;SDS011;13201;51.148;13.738;2023-06-14T00:15:06;3.67;;;2.08;;
25249;SDS011;13201;51.148;13.738;2023-06-14T00:17:34;4.95;;;2.00;;
25249;SDS011;13201;51.148;13.738;2023-06-14T00:20:02;3.30;;;1.95;;
25249;SDS011;13201;51.148;13.738;2023-06-14T00:22:32;6.30;;;2.30;;
25249;SDS011;13201;51.148;13.738;2023-06-14T00:24:58;4.22;;;2.30;;
25249;SDS011;13201;51.148;13.738;2023-06-14T00:27:23;3.47;;;2.00;;
25249;SDS011;13201;51.148;13.738;2023-06-14T00:29:50;4.50;;;2.00;;
25249;SDS011;13201;51.148;13.738;2023-06-14T00:32:15;7.82;;;2.45;;
25249;SDS011;13201;51.148;13.738;2023-06-14T00:34:41;3.67;;;2.00;;
25249;SDS011;13201;51.148;13.738;2023-06-14T00:37:07;5.45;;;2.15;;
25249;SDS011;13201;51.148;13.738;2023-06-14T00:39:32;5.10;;;2.10;;
25249;SDS011;13201;51.148;13.738;2023-06-14T00:41:58;4.38;;;1.90;;
25249;SDS011;13201;51.148;13.738;2023-06-14T00:44:24;5.53;;;2.40;;
25249;SDS011;13201;51.148;13.738;2023-06-14T00:46:50;4.28;;;2.00;;
25249;SDS011;13201;51.148;13.738;2023-06-14T00:49:16;6.67;;;2.10;;
25249;SDS011;13201;51.148;13.738;2023-06-14T00:51:44;3.95;;;1.90;;
25249;SDS011;13201;51.148;13.738;2023-06-14T00:54:10;4.82;;;2.17;;
25249;SDS011;13201;51.148;13.738;2023-06-14T00:56:36;4.40;;;2.10;;
25249;SDS011;13201;51.148;13.738;2023-06-14T00:59:02;3.35;;;1.98;;
25249;SDS011;13201;51.148;13.738;2023-06-14T01:01:28;3.58;;;2.13;;
25249;SDS011;13201;51.148;13.738;2023-06-14T01:03:57;2.90;;;1.95;;
25249;SDS011;13201;51.148;13.738;2023-06-14T01:29:57;2.95;;;1.95;;
25249;SDS011;13201;51.148;13.738;2023-06-14T01:37:17;4.90;;;2.10;;
25249;SDS011;13201;51.148;13.738;2023-06-14T01:39:44;3.05;;;2.10;;
25249;SDS011;13201;51.148;13.738;2023-06-14T01:42:10;3.07;;;2.20;;
25249;SDS011;13201;51.148;13.738;2023-06-14T01:44:38;5.03;;;1.95;;
25249;SDS011;13201;51.148;13.738;2023-06-14T01:47:05;4.15;;;2.00;;
25249;SDS011;13201;51.148;13.738;2023-06-14T01:49:33;2.13;;;1.77;;
25249;SDS011;13201;51.148;13.738;2023-06-14T01:52:00;5.25;;;1.98;;
25249;SDS011;13201;51.148;13.738;2023-06-14T01:54:26;3.83;;;2.00;;
25249;SDS011;13201;51.148;13.738;2023-06-14T01:56:52;4.70;;;2.00;;
25249;SDS011;13201;51.148;13.738;2023-06-14T01:59:18;3.92;;;1.98;;
25249;SDS011;13201;51.148;13.738;2023-06-14T02:01:44;2.67;;;1.92;;
25249;SDS011;13201;51.148;13.738;2023-06-14T02:04:11;3.22;;;2.00;;
25249;SDS011;13201;51.148;13.738;2023-06-14T02:06:37;4.20;;;2.20;;
25249;SDS011;13201;51.148;13.738;2023-06-14T02:09:02;4.05;;;2.00;;
25249;SDS011;13201;51.148;13.738;2023-06-14T02:11:28;3.58;;;2.08;;
25249;SDS011;13201;51.148;13.738;2023-06-14T02:13:54;4.22;;;2.13;;
25249;SDS011;13201;51.148;13.738;2023-06-14T02:16:20;3.70;;;2.15;;
25249;SDS011;13201;51.148;13.738;2023-06-14T02:18:47;3.75;;;2.28;;
25249;SDS011;13201;51.148;13.738;2023-06-14T02:21:13;3.20;;;2.10;;
25249;SDS011;13201;51.148;13.738;2023-06-14T02:23:39;6.93;;;2.55;;
25249;SDS011;13201;51.148;13.738;2023-06-14T02:26:05;6.85;;;2.30;;
25249;SDS011;13201;51.148;13.738;2023-06-14T02:28:31;4.60;;;2.28;;
25249;SDS011;13201;51.148;13.738;2023-06-14T02:30:56;3.97;;;1.95;;
25249;SDS011;13201;51.148;13.738;2023-06-14T02:33:22;3.22;;;2.13;;
25249;SDS011;13201;51.148;13.738;2023-06-14T02:35:48;2.22;;;2.00;;
25249;SDS011;13201;51.148;13.738;2023-06-14T02:38:13;3.83;;;2.03;;
25249;SDS011;13201;51.148;13.738;2023-06-14T02:40:39;4.72;;;2.10;;
25249;SDS011;13201;51.148;13.738;2023-06-14T02:43:07;4.95;;;2.15;;
25249;SDS011;13201;51.148;13.738;2023-06-14T02:45:33;3.17;;;1.90;;
25249;SDS011;13201;51.148;13.738;2023-06-14T02:47:59;3.40;;;2.30;;
25249;SDS011;13201;51.148;13.738;2023-06-14T02:50:25;4.25;;;2.15;;
25249;SDS011;13201;51.148;13.738;2023-06-14T02:52:53;5.72;;;2.10;;
25249;SDS011;13201;51.148;13.738;2023-06-14T02:55:20;3.90;;;1.90;;
25249;SDS011;13201;51.148;13.738;2023-06-14T02:57:46;2.75;;;2.00;;
25249;SDS011;13201;51.148;13.738;2023-06-14T03:00:13;3.00;;;2.03;;
25249;SDS011;13201;51.148;13.738;2023-06-14T03:02:39;5.78;;;2.47;;
25249;SDS011;13201;51.148;13.738;2023-06-14T03:05:05;2.72;;;2.20;;
25249;SDS011;13201;51.148;13.738;2023-06-14T03:07:32;2.70;;;1.98;;
25249;SDS011;13201;51.148;13.738;2023-06-14T03:09:57;4.20;;;2.20;;
25249;SDS011;13201;51.148;13.738;2023-06-14T03:12:23;3.58;;;2.25;;
25249;SDS011;13201;51.148;13.738;2023-06-14T03:14:49;2.73;;;2.07;;
25249;SDS011;13201;51.148;13.738;2023-06-14T03:17:16;4.35;;;2.92;;
25249;SDS011;13201;51.148;13.738;2023-06-14T03:19:42;3.05;;;2.22;;
25249;SDS011;13201;51.148;13.738;2023-06-14T03:22:08;3.03;;;2.17;;
25249;SDS011;13201;51.148;13.738;2023-06-14T03:24:36;7.82;;;2.58;;
25249;SDS011;13201;51.148;13.738;2023-06-14T03:27:02;4.80;;;2.33;;
25249;SDS011;13201;51.148;13.738;2023-06-14T03:29:28;3.07;;;2.17;;
25249;SDS011;13201;51.148;13.738;2023-06-14T03:31:58;4.63;;;2.47;;
25249;SDS011;13201;51.148;13.738;2023-06-14T03:34:25;9.45;;;2.63;;
25249;SDS011;13201;51.148;13.738;2023-06-14T03:36:51;5.63;;;2.50;;
25249;SDS011;13201;51.148;13.738;2023-06-14T03:39:17;3.50;;;2.42;;
25249;SDS011;13201;51.148;13.738;2023-06-14T03:41:44;5.22;;;2.38;;
25249;SDS011;13201;51.148;13.738;2023-06-14T03:44:09;8.80;;;5.05;;
25249;SDS011;13201;51.148;13.738;2023-06-14T03:46:35;8.68;;;6.60;;
25249;SDS011;13201;51.148;13.738;2023-06-14T03:49:01;9.98;;;7.82;;
25249;SDS011;13201;51.148;13.738;2023-06-14T03:51:27;10.50;;;4.50;;
25249;SDS011;13201;51.148;13.738;2023-06-14T03:53:54;4.53;;;2.73;;
25249;SDS011;13201;51.148;13.738;2023-06-14T03:56:20;4.15;;;2.88;;
25249;SDS011;13201;51.148;13.738;2023-06-14T03:58:46;3.58;;;2.70;;
25249;SDS011;13201;51.148;13.738;2023-06-14T04:01:12;4.40;;;2.60;;
25249;SDS011;13201;51.148;13.738;2023-06-14T04:03:38;4.57;;;2.80;;
25249;SDS011;13201;51.148;13.738;2023-06-14T04:06:05;5.00;;;2.90;;
25249;SDS011;13201;51.148;13.738;2023-06-14T04:08:31;5.03;;;3.05;;
25249;SDS011;13201;51.148;13.738;2023-06-14T04:10:57;4.63;;;2.95;;
25249;SDS011;13201;51.148;13.738;2023-06-14T04:13:23;6.93;;;3.30;;
25249;SDS011;13201;51.148;13.738;2023-06-14T04:15:48;5.18;;;3.10;;
25249;SDS011;13201;51.148;13.738;2023-06-14T04:18:14;3.70;;;2.78;;
25249;SDS011;13201;51.148;13.738;2023-06-14T04:20:40;7.30;;;3.00;;
25249;SDS011;13201;51.148;13.738;2023-06-14T04:23:18;7.03;;;3.50;;
25249;SDS011;13201;51.148;13.738;2023-06-14T04:25:44;3.88;;;3.03;;
25249;SDS011;13201;51.148;13.738;2023-06-14T04:28:13;7.28;;;3.20;;
25249;SDS011;13201;51.148;13.738;2023-06-14T04:30:43;4.45;;;3.22;;
25249;SDS011;13201;51.148;13.738;2023-06-14T04:33:09;4.85;;;3.45;;
25249;SDS011;13201;51.148;13.738;2023-06-14T04:35:36;10.60;;;5.20;;
25249;SDS011;13201;51.148;13.738;2023-06-14T04:38:02;7.30;;;3.60;;
25249;SDS011;13201;51.148;13.738;2023-06-14T04:40:34;4.38;;;3.20;;
25249;SDS011;13201;51.148;13.738;2023-06-14T04:43:07;6.80;;;3.70;;
25249;SDS011;13201;51.148;13.738;2023-06-14T04:45:33;10.68;;;4.72;;
25249;SDS011;13201;51.148;13.738;2023-06-14T04:47:59;9.70;;;5.38;;
25249;SDS011;13201;51.148;13.738;2023-06-14T04:50:25;6.30;;;3.72;;
25249;SDS011;13201;51.148;13.738;2023-06-14T04:52:52;13.70;;;6.13;;
25249;SDS011;13201;51.148;13.738;2023-06-14T04:55:18;7.47;;;4.72;;
25249;SDS011;13201;51.148;13.738;2023-06-14T04:57:45;10.50;;;4.70;;
25249;SDS011;13201;51.148;13.738;2023-06-14T05:00:10;6.82;;;4.55;;
25249;SDS011;13201;51.148;13.738;2023-06-14T05:02:36;8.10;;;4.27;;
25249;SDS011;13201;51.148;13.738;2023-06-14T05:05:03;5.00;;;3.53;;
25249;SDS011;13201;51.148;13.738;2023-06-14T05:07:32;6.60;;;4.15;;
25249;SDS011;13201;51.148;13.738;2023-06-14T05:10:01;7.20;;;3.95;;
25249;SDS011;13201;51.148;13.738;2023-06-14T05:12:26;6.20;;;4.32;;
25249;SDS011;13201;51.148;13.738;2023-06-14T05:14:54;10.65;;;6.05;;
25249;SDS011;13201;51.148;13.738;2023-06-14T05:17:19;7.25;;;4.70;;
25249;SDS011;13201;51.148;13.738;2023-06-14T05:19:45;7.63;;;4.65;;
25249;SDS011;13201;51.148;13.738;2023-06-14T05:22:11;6.28;;;4.35;;
25249;SDS011;13201;51.148;13.738;2023-06-14T05:24:37;7.93;;;4.45;;
25249;SDS011;13201;51.148;13.738;2023-06-14T05:27:02;9.90;;;5.30;;
25249;SDS011;13201;51.148;13.738;2023-06-14T05:29:28;13.85;;;6.10;;
25249;SDS011;13201;51.148;13.738;2023-06-14T05:31:54;10.95;;;4.80;;
25249;SDS011;13201;51.148;13.738;2023-06-14T05:34:20;7.78;;;4.35;;
25249;SDS011;13201;51.148;13.738;2023-06-14T05:36:45;8.20;;;3.70;;
25249;SDS011;13201;51.148;13.738;2023-06-14T05:39:11;7.97;;;4.15;;
25249;SDS011;13201;51.148;13.738;2023-06-14T05:41:37;5.78;;;3.67;;
25249;SDS011;13201;51.148;13.738;2023-06-14T05:44:03;6.15;;;3.90;;
25249;SDS011;13201;51.148;13.738;2023-06-14T05:46:28;9.63;;;4.22;;
25249;SDS011;13201;51.148;13.738;2023-06-14T05:48:54;5.03;;;3.78;;
25249;SDS011;13201;51.148;13.738;2023-06-14T05:51:20;7.43;;;3.80;;
25249;SDS011;13201;51.148;13.738;2023-06-14T05:53:47;7.43;;;3.73;;
25249;SDS011;13201;51.148;13.738;2023-06-14T05:56:13;5.97;;;4.13;;
25249;SDS011;13201;51.148;13.738;2023-06-14T05:58:39;6.15;;;3.67;;
25249;SDS011;13201;51.148;13.738;2023-06-14T06:01:06;5.90;;;3.90;;
25249;SDS011;13201;51.148;13.738;2023-06-14T06:03:32;4.72;;;3.45;;
25249;SDS011;13201;51.148;13.738;2023-06-14T06:05:58;5.47;;;3.80;;
25249;SDS011;13201;51.148;13.738;2023-06-14T06:08:24;7.22;;;3.75;;
25249;SDS011;13201;51.148;13.738;2023-06-14T06:10:51;7.28;;;3.65;;
25249;SDS011;13201;51.148;13.738;2023-06-14T06:13:17;4.65;;;3.63;;
25249;SDS011;13201;51.148;13.738;2023-06-14T06:15:42;5.22;;;3.47;;
25249;SDS011;13201;51.148;13.738;2023-06-14T06:18:08;6.57;;;3.33;;
25249;SDS011;13201;51.148;13.738;2023-06-14T06:20:34;5.63;;;3.53;;
25249;SDS011;13201;51.148;13.738;2023-06-14T06:23:01;6.10;;;3.35;;
25249;SDS011;13201;51.148;13.738;2023-06-14T06:25:27;4.90;;;3.60;;
25249;SDS011;13201;51.148;13.738;2023-06-14T06:27:53;5.40;;;3.80;;
25249;SDS011;13201;51.148;13.738;2023-06-14T06:30:21;4.72;;;3.55;;
25249;SDS011;13201;51.148;13.738;2023-06-14T06:32:46;5.68;;;3.47;;
25249;SDS011;13201;51.148;13.738;2023-06-14T06:35:12;5.13;;;3.80;;
25249;SDS011;13201;51.148;13.738;2023-06-14T06:37:38;5.13;;;3.63;;
25249;SDS011;13201;51.148;13.738;2023-06-14T06:40:04;4.40;;;3.40;;
25249;SDS011;13201;51.148;13.738;2023-06-14T06:42:31;6.20;;;3.30;;
25249;SDS011;13201;51.148;13.738;2023-06-14T06:44:57;6.43;;;3.10;;
25249;SDS011;13201;51.148;13.738;2023-06-14T06:47:23;4.63;;;3.40;;
25249;SDS011;13201;51.148;13.738;2023-06-14T06:49:49;4.72;;;3.50;;
25249;SDS011;13201;51.148;13.738;2023-06-14T06:52:15;5.30;;;3.40;;
25249;SDS011;13201;51.148;13.738;2023-06-14T06:54:41;5.22;;;3.40;;
25249;SDS011;13201;51.148;13.738;2023-06-14T06:57:07;3.90;;;2.53;;
25249;SDS011;13201;51.148;13.738;2023-06-14T06:59:33;6.03;;;2.97;;
25249;SDS011;13201;51.148;13.738;2023-06-14T07:01:59;5.72;;;2.97;;
25249;SDS011;13201;51.148;13.738;2023-06-14T07:04:25;5.05;;;3.20;;
25249;SDS011;13201;51.148;13.738;2023-06-14T07:06:51;5.35;;;2.92;;
25249;SDS011;13201;51.148;13.738;2023-06-14T07:09:16;4.28;;;3.35;;
25249;SDS011;13201;51.148;13.738;2023-06-14T07:11:44;4.80;;;3.05;;
25249;SDS011;13201;51.148;13.738;2023-06-14T07:14:10;6.10;;;3.10;;
25249;SDS011;13201;51.148;13.738;2023-06-14T07:16:36;6.38;;;2.78;;
25249;SDS011;13201;51.148;13.738;2023-06-14T07:19:03;4.00;;;2.78;;
25249;SDS011;13201;51.148;13.738;2023-06-14T07:21:29;4.18;;;3.00;;
25249;SDS011;13201;51.148;13.738;2023-06-14T07:23:55;4.30;;;2.88;;
25249;SDS011;13201;51.148;13.738;2023-06-14T07:26:21;4.43;;;3.05;;
25249;SDS011;13201;51.148;13.738;2023-06-14T07:28:47;4.00;;;2.97;;
25249;SDS011;13201;51.148;13.738;2023-06-14T07:31:14;4.25;;;2.80;;
25249;SDS011;13201;51.148;13.738;2023-06-14T07:33:41;4.35;;;3.03;;
25249;SDS011;13201;51.148;13.738;2023-06-14T07:36:07;7.85;;;2.60;;
25249;SDS011;13201;51.148;13.738;2023-06-14T07:38:33;4.63;;;2.75;;
25249;SDS011;13201;51.148;13.738;2023-06-14T07:40:59;4.05;;;2.42;;
25249;SDS011;13201;51.148;13.738;2023-06-14T07:43:25;2.60;;;2.30;;
25249;SDS011;13201;51.148;13.738;2023-06-14T07:45:51;5.20;;;2.53;;
25249;SDS011;13201;51.148;13.738;2023-06-14T07:48:17;8.13;;;4.63;;
25249;SDS011;13201;51.148;13.738;2023-06-14T07:50:43;3.00;;;2.40;;
25249;SDS011;13201;51.148;13.738;2023-06-14T07:53:08;3.33;;;2.35;;
25249;SDS011;13201;51.148;13.738;2023-06-14T07:55:34;5.20;;;2.53;;
25249;SDS011;13201;51.148;13.738;2023-06-14T07:58:02;4.85;;;2.50;;
25249;SDS011;13201;51.148;13.738;2023-06-14T08:00:28;3.03;;;2.30;;
25249;SDS011;13201;51.148;13.738;2023-06-14T08:02:54;3.10;;;2.25;;
25249;SDS011;13201;51.148;13.738;2023-06-14T08:05:23;2.75;;;2.03;;
25249;SDS011;13201;51.148;13.738;2023-06-14T08:07:53;4.97;;;2.50;;
25249;SDS011;13201;51.148;13.738;2023-06-14T08:10:19;3.33;;;2.63;;
25249;SDS011;13201;51.148;13.738;2023-06-14T08:12:45;3.65;;;2.08;;
25249;SDS011;13201;51.148;13.738;2023-06-14T08:15:11;3.63;;;2.40;;
25249;SDS011;13201;51.148;13.738;2023-06-14T08:17:37;5.68;;;2.15;;
25249;SDS011;13201;51.148;13.738;2023-06-14T08:20:03;5.53;;;3.17;;
25249;SDS011;13201;51.148;13.738;2023-06-14T08:22:30;3.13;;;2.45;;
25249;SDS011;13201;51.148;13.738;2023-06-14T08:24:59;4.07;;;2.05;;
25249;SDS011;13201;51.148;13.738;2023-06-14T08:27:26;2.85;;;2.17;;
25249;SDS011;13201;51.148;13.738;2023-06-14T08:29:52;3.38;;;2.28;;
25249;SDS011;13201;51.148;13.738;2023-06-14T08:32:18;3.88;;;2.38;;
25249;SDS011;13201;51.148;13.738;2023-06-14T08:34:44;4.82;;;2.03;;
25249;SDS011;13201;51.148;13.738;2023-06-14T08:37:09;2.53;;;2.30;;
25249;SDS011;13201;51.148;13.738;2023-06-14T08:39:35;3.97;;;2.00;;
25249;SDS011;13201;51.148;13.738;2023-06-14T08:42:02;5.05;;;2.20;;
25249;SDS011;13201;51.148;13.738;2023-06-14T08:44:32;12.18;;;2.70;;
25249;SDS011;13201;51.148;13.738;2023-06-14T08:46:57;3.28;;;2.50;;
25249;SDS011;13201;51.148;13.738;2023-06-14T08:49:25;3.65;;;2.40;;
25249;SDS011;13201;51.148;13.738;2023-06-14T08:51:58;3.97;;;2.40;;
25249;SDS011;13201;51.148;13.738;2023-06-14T08:54:25;3.00;;;2.40;;
25249;SDS011;13201;51.148;13.738;2023-06-14T08:56:59;3.17;;;2.30;;
25249;SDS011;13201;51.148;13.738;2023-06-14T08:59:25;3.75;;;2.50;;
25249;SDS011;13201;51.148;13.738;2023-06-14T09:01:51;5.45;;;2.55;;
25249;SDS011;13201;51.148;13.738;2023-06-14T09:04:19;4.45;;;2.50;;
25249;SDS011;13201;51.148;13.738;2023-06-14T09:06:50;3.30;;;2.60;;
25249;SDS011;13201;51.148;13.738;2023-06-14T09:11:45;5.28;;;2.80;;
25249;SDS011;13201;51.148;13.738;2023-06-14T09:14:11;4.20;;;2.60;;
25249;SDS011;13201;51.148;13.738;2023-06-14T09:16:37;5.30;;;2.95;;
25249;SDS011;13201;51.148;13.738;2023-06-14T09:19:02;4.63;;;2.50;;
25249;SDS011;13201;51.148;13.738;2023-06-14T09:21:28;3.95;;;2.50;;
25249;SDS011;13201;51.148;13.738;2023-06-14T09:24:01;4.63;;;2.63;;
25249;SDS011;13201;51.148;13.738;2023-06-14T09:26:27;4.03;;;2.55;;
25249;SDS011;13201;51.148;13.738;2023-06-14T09:28:53;4.78;;;2.70;;
25249;SDS011;13201;51.148;13.738;2023-06-14T09:36:24;3.58;;;2.38;;
25249;SDS011;13201;51.148;13.738;2023-06-14T09:38:54;3.83;;;2.55;;
25249;SDS011;13201;51.148;13.738;2023-06-14T09:41:33;3.35;;;2.50;;
25249;SDS011;13201;51.148;13.738;2023-06-14T09:44:09;4.13;;;2.38;;
25249;SDS011;13201;51.148;13.738;2023-06-14T09:46:37;5.88;;;2.63;;
25249;SDS011;13201;51.148;13.738;2023-06-14T09:49:04;3.70;;;2.47;;
25249;SDS011;13201;51.148;13.738;2023-06-14T09:51:31;7.32;;;2.60;;
25249;SDS011;13201;51.148;13.738;2023-06-14T09:54:02;4.38;;;2.72;;
25249;SDS011;13201;51.148;13.738;2023-06-14T09:56:33;3.53;;;2.42;;
25249;SDS011;13201;51.148;13.738;2023-06-14T09:59:02;5.18;;;2.60;;
25249;SDS011;13201;51.148;13.738;2023-06-14T10:01:30;5.13;;;2.33;;
25249;SDS011;13201;51.148;13.738;2023-06-14T10:04:03;3.00;;;2.35;;
25249;SDS011;13201;51.148;13.738;2023-06-14T10:06:30;5.07;;;2.60;;
25249;SDS011;13201;51.148;13.738;2023-06-14T10:08:57;3.15;;;2.20;;
25249;SDS011;13201;51.148;13.738;2023-06-14T10:11:27;6.68;;;2.63;;
25249;SDS011;13201;51.148;13.738;2023-06-14T10:13:54;5.75;;;2.95;;
25249;SDS011;13201;51.148;13.738;2023-06-14T10:19:06;3.53;;;2.70;;
25249;SDS011;13201;51.148;13.738;2023-06-14T10:24:43;4.55;;;2.60;;
25249;SDS011;13201;51.148;13.738;2023-06-14T10:27:10;3.58;;;2.50;;
25249;SDS011;13201;51.148;13.738;2023-06-14T10:32:21;4.57;;;2.75;;
25249;SDS011;13201;51.148;13.738;2023-06-14T10:34:53;7.68;;;2.95;;
25249;SDS011;13201;51.148;13.738;2023-06-14T10:37:32;5.60;;;2.85;;
25249;SDS011;13201;51.148;13.738;2023-06-14T10:39:58;5.68;;;3.10;;
25249;SDS011;13201;51.148;13.738;2023-06-14T10:42:33;4.70;;;2.60;;
25249;SDS011;13201;51.148;13.738;2023-06-14T10:44:59;3.78;;;2.78;;
25249;SDS011;13201;51.148;13.738;2023-06-14T10:52:33;5.15;;;2.53;;
25249;SDS011;13201;51.148;13.738;2023-06-14T10:55:09;2.92;;;2.45;;
25249;SDS011;13201;51.148;13.738;2023-06-14T10:57:58;4.13;;;2.63;;
25249;SDS011;13201;51.148;13.738;2023-06-14T11:00:25;4.75;;;2.38;;
25249;SDS011;13201;51.148;13.738;2023-06-14T11:05:56;3.75;;;2.33;;
25249;SDS011;13201;51.148;13.738;2023-06-14T11:11:37;2.70;;;2.13;;
25249;SDS011;13201;51.148;13.738;2023-06-14T11:14:06;2.90;;;2.25;;
25249;SDS011;13201;51.148;13.738;2023-06-14T11:16:32;2.78;;;2.17;;
25249;SDS011;13201;51.148;13.738;2023-06-14T11:19:00;2.53;;;2.30;;
25249;SDS011;13201;51.148;13.738;2023-06-14T11:21:28;3.03;;;2.17;;
25249;SDS011;13201;51.148;13.738;2023-06-14T11:23:58;5.47;;;2.50;;
25249;SDS011;13201;51.148;13.738;2023-06-14T11:26:24;3.67;;;2.40;;
25249;SDS011;13201;51.148;13.738;2023-06-14T11:28:54;6.00;;;2.65;;
25249;SDS011;13201;51.148;13.738;2023-06-14T11:31:24;4.25;;;2.60;;
25249;SDS011;13201;51.148;13.738;2023-06-14T11:33:53;3.65;;;2.58;;
25249;SDS011;13201;51.148;13.738;2023-06-14T11:36:20;4.38;;;2.70;;
25249;SDS011;13201;51.148;13.738;2023-06-14T11:38:45;3.72;;;2.85;;
25249;SDS011;13201;51.148;13.738;2023-06-14T11:41:11;3.88;;;2.70;;
25249;SDS011;13201;51.148;13.738;2023-06-14T11:43:37;3.25;;;2.80;;
25249;SDS011;13201;51.148;13.738;2023-06-14T11:46:02;3.23;;;2.83;;
25249;SDS011;13201;51.148;13.738;2023-06-14T11:48:38;4.93;;;3.10;;
25249;SDS011;13201;51.148;13.738;2023-06-14T11:51:07;3.67;;;2.75;;
25249;SDS011;13201;51.148;13.738;2023-06-14T11:53:33;3.75;;;3.28;;
25249;SDS011;13201;51.148;13.738;2023-06-14T11:55:59;3.80;;;2.75;;
25249;SDS011;13201;51.148;13.738;2023-06-14T11:58:25;7.23;;;2.40;;
25249;SDS011;13201;51.148;13.738;2023-06-14T12:00:52;3.70;;;2.53;;
25249;SDS011;13201;51.148;13.738;2023-06-14T12:03:22;3.95;;;3.03;;
25249;SDS011;13201;51.148;13.738;2023-06-14T12:06:07;5.90;;;3.00;;
25249;SDS011;13201;51.148;13.738;2023-06-14T12:08:37;4.22;;;3.42;;
25249;SDS011;13201;51.148;13.738;2023-06-14T12:11:07;4.20;;;3.20;;
25249;SDS011;13201;51.148;13.738;2023-06-14T12:13:39;6.43;;;4.97;;
25249;SDS011;13201;51.148;13.738;2023-06-14T12:16:06;10.30;;;5.25;;
25249;SDS011;13201;51.148;13.738;2023-06-14T12:18:34;5.32;;;3.72;;
25249;SDS011;13201;51.148;13.738;2023-06-14T12:21:01;4.65;;;3.85;;
25249;SDS011;13201;51.148;13.738;2023-06-14T12:26:13;5.20;;;3.50;;
25249;SDS011;13201;51.148;13.738;2023-06-14T12:28:44;10.48;;;4.07;;
25249;SDS011;13201;51.148;13.738;2023-06-14T12:31:11;5.70;;;3.15;;
25249;SDS011;13201;51.148;13.738;2023-06-14T12:36:06;4.10;;;2.83;;
25249;SDS011;13201;51.148;13.738;2023-06-14T12:38:34;3.63;;;2.72;;
25249;SDS011;13201;51.148;13.738;2023-06-14T12:41:00;5.10;;;2.70;;
25249;SDS011;13201;51.148;13.738;2023-06-14T12:43:26;4.27;;;3.10;;
25249;SDS011;13201;51.148;13.738;2023-06-14T12:45:52;3.97;;;2.65;;
25249;SDS011;13201;51.148;13.738;2023-06-14T12:48:17;3.38;;;2.50;;
25249;SDS011;13201;51.148;13.738;2023-06-14T12:50:43;4.95;;;2.60;;
25249;SDS011;13201;51.148;13.738;2023-06-14T12:53:09;5.07;;;2.83;;
25249;SDS011;13201;51.148;13.738;2023-06-14T12:55:35;16.30;;;3.23;;
25249;SDS011;13201;51.148;13.738;2023-06-14T12:58:01;4.53;;;3.00;;
25249;SDS011;13201;51.148;13.738;2023-06-14T13:00:27;5.27;;;3.27;;
25249;SDS011;13201;51.148;13.738;2023-06-14T13:02:54;3.75;;;2.90;;
25249;SDS011;13201;51.148;13.738;2023-06-14T13:05:21;4.73;;;2.97;;
25249;SDS011;13201;51.148;13.738;2023-06-14T13:07:46;3.90;;;3.20;;
25249;SDS011;13201;51.148;13.738;2023-06-14T13:10:12;4.18;;;3.28;;
25249;SDS011;13201;51.148;13.738;2023-06-14T13:12:37;4.18;;;3.00;;
25249;SDS011;13201;51.148;13.738;2023-06-14T13:15:03;4.07;;;3.33;;
25249;SDS011;13201;51.148;13.738;2023-06-14T13:17:29;5.78;;;3.15;;
25249;SDS011;13201;51.148;13.738;2023-06-14T13:19:58;3.53;;;3.00;;
25249;SDS011;13201;51.148;13.738;2023-06-14T13:22:24;5.55;;;3.55;;
25249;SDS011;13201;51.148;13.738;2023-06-14T13:24:50;5.72;;;2.80;;
25249;SDS011;13201;51.148;13.738;2023-06-14T13:27:16;4.70;;;2.90;;
25249;SDS011;13201;51.148;13.738;2023-06-14T13:29:41;8.57;;;3.13;;
25249;SDS011;13201;51.148;13.738;2023-06-14T13:32:07;4.57;;;2.60;;
25249;SDS011;13201;51.148;13.738;2023-06-14T13:34:33;3.20;;;2.60;;
25249;SDS011;13201;51.148;13.738;2023-06-14T13:36:58;5.73;;;2.60;;
25249;SDS011;13201;51.148;13.738;2023-06-14T13:39:25;20.93;;;12.37;;
25249;SDS011;13201;51.148;13.738;2023-06-14T13:41:51;5.68;;;3.92;;
25249;SDS011;13201;51.148;13.738;2023-06-14T13:44:16;3.60;;;2.40;;
25249;SDS011;13201;51.148;13.738;2023-06-14T13:46:44;3.83;;;2.60;;
25249;SDS011;13201;51.148;13.738;2023-06-14T13:49:09;5.45;;;2.50;;
25249;SDS011;13201;51.148;13.738;2023-06-14T13:51:35;3.97;;;2.57;;
25249;SDS011;13201;51.148;13.738;2023-06-14T13:54:01;4.67;;;2.10;;
25249;SDS011;13201;51.148;13.738;2023-06-14T13:56:27;2.73;;;2.30;;
25249;SDS011;13201;51.148;13.738;2023-06-14T13:58:53;11.43;;;3.10;;
25249;SDS011;13201;51.148;13.738;2023-06-14T14:01:18;8.60;;;3.00;;
25249;SDS011;13201;51.148;13.738;2023-06-14T14:03:47;6.45;;;2.13;;
25249;SDS011;13201;51.148;13.738;2023-06-14T14:06:14;2.83;;;2.28;;
25249;SDS011;13201;51.148;13.738;2023-06-14T14:08:41;7.60;;;2.40;;
25249;SDS011;13201;51.148;13.738;2023-06-14T14:11:08;3.95;;;2.30;;
25249;SDS011;13201;51.148;13.738;2023-06-14T14:13:34;6.95;;;2.47;;
25249;SDS011;13201;51.148;13.738;2023-06-14T14:16:04;4.45;;;2.70;;
25249;SDS011;13201;51.148;13.738;2023-06-14T14:18:30;4.80;;;2.30;;
25249;SDS011;13201;51.148;13.738;2023-06-14T14:23:23;3.13;;;2.30;;
25249;SDS011;13201;51.148;13.738;2023-06-14T14:25:49;5.13;;;2.27;;
25249;SDS011;13201;51.148;13.738;2023-06-14T14:28:15;8.77;;;2.60;;
25249;SDS011;13201;51.148;13.738;2023-06-14T14:30:41;3.53;;;2.20;;
25249;SDS011;13201;51.148;13.738;2023-06-14T14:33:07;6.30;;;1.95;;
25249;SDS011;13201;51.148;13.738;2023-06-14T14:35:33;3.53;;;2.30;;
25249;SDS011;13201;51.148;13.738;2023-06-14T14:37:59;7.60;;;2.80;;
25249;SDS011;13201;51.148;13.738;2023-06-14T14:40:25;4.40;;;2.70;;
25249;SDS011;13201;51.148;13.738;2023-06-14T14:42:51;7.13;;;3.47;;
25249;SDS011;13201;51.148;13.738;2023-06-14T14:45:17;3.27;;;2.17;;
25249;SDS011;13201;51.148;13.738;2023-06-14T14:47:42;3.30;;;2.60;;
25249;SDS011;13201;51.148;13.738;2023-06-14T14:50:08;4.20;;;2.53;;
25249;SDS011;13201;51.148;13.738;2023-06-14T14:52:35;4.75;;;2.30;;
25249;SDS011;13201;51.148;13.738;2023-06-14T14:55:01;3.67;;;2.20;;
25249;SDS011;13201;51.148;13.738;2023-06-14T14:57:27;5.13;;;2.55;;
25249;SDS011;13201;51.148;13.738;2023-06-14T14:59:52;4.20;;;2.63;;
25249;SDS011;13201;51.148;13.738;2023-06-14T15:02:18;6.17;;;2.53;;
25249;SDS011;13201;51.148;13.738;2023-06-14T15:04:44;2.73;;;2.40;;
25249;SDS011;13201;51.148;13.738;2023-06-14T15:07:10;3.63;;;2.55;;
25249;SDS011;13201;51.148;13.738;2023-06-14T15:09:36;3.83;;;2.40;;
25249;SDS011;13201;51.148;13.738;2023-06-14T15:12:02;2.30;;;1.70;;
25249;SDS011;13201;51.148;13.738;2023-06-14T15:14:28;4.72;;;2.83;;
25249;SDS011;13201;51.148;13.738;2023-06-14T15:16:54;4.83;;;2.40;;
25249;SDS011;13201;51.148;13.738;2023-06-14T15:19:20;3.43;;;2.53;;
25249;SDS011;13201;51.148;13.738;2023-06-14T15:21:45;3.87;;;2.90;;
25249;SDS011;13201;51.148;13.738;2023-06-14T15:24:11;3.73;;;2.90;;
25249;SDS011;13201;51.148;13.738;2023-06-14T15:26:37;5.63;;;3.80;;
25249;SDS011;13201;51.148;13.738;2023-06-14T15:29:02;6.83;;;2.97;;
25249;SDS011;13201;51.148;13.738;2023-06-14T15:31:28;4.20;;;3.10;;
25249;SDS011;13201;51.148;13.738;2023-06-14T15:33:54;3.57;;;2.83;;